Time;durP1;ratioP1;P1;durP2;ratioP2;P2;SDS_P1;SDS_P2;PMS_P1;PMS_P2;Temp;Humidity;BMP_temperature;BMP_pressure;BME280_temperature;BME280_humidity;BME280_pressure;Samples;Min_cycle;Max_cycle;Signal;HPM_P1;HPM_P2
2023/02/13 00:02:00;;;;;;;2.17;2.00;;;20.30;58.20;;;;;;6267596;22;20454;-92
2023/02/13 00:07:10;;;;;;;2.80;1.97;;;20.30;58.10;;;;;;6274619;22;20387;-90
2023/02/13 00:09:37;;;;;;;2.07;1.97;;;20.30;58.10;;;;;;6267840;22;20389;-90
2023/02/13 00:12:05;;;;;;;2.60;2.40;;;20.30;58.70;;;;;;6264833;22;20448;-89
2023/02/13 00:14:35;;;;;;;1.90;1.80;;;20.30;58.10;;;;;;6262137;22;20481;-90
2023/02/13 00:17:02;;;;;;;2.30;2.10;;;20.30;58.10;;;;;;6263731;22;20424;-90
2023/02/13 00:19:29;;;;;;;2.53;2.33;;;20.30;58.10;;;;;;6265036;22;20403;-89
2023/02/13 00:22:24;;;;;;;2.20;2.10;;;20.30;58.10;;;;;;6266977;22;20500;-95
2023/02/13 00:24:51;;;;;;;2.63;2.43;;;20.30;58.10;;;;;;6265975;22;20393;-90
2023/02/13 00:27:18;;;;;;;1.90;1.80;;;20.30;58.10;;;;;;6236288;23;20385;-90
2023/02/13 00:29:47;;;;;;;2.40;2.20;;;20.30;58.10;;;;;;6260646;22;20492;-89
2023/02/13 00:32:14;;;;;;;2.60;2.40;;;20.30;58.10;;;;;;6257078;23;20536;-89
2023/02/13 00:34:42;;;;;;;2.10;2.00;;;20.30;58.10;;;;;;6263387;22;20484;-90
2023/02/13 00:37:09;;;;;;;2.13;1.97;;;20.30;58.00;;;;;;6265186;22;20406;-92
2023/02/13 00:39:40;;;;;;;2.37;2.27;;;20.30;58.10;;;;;;6262921;22;20428;-90
2023/02/13 00:42:09;;;;;;;2.03;1.93;;;20.30;58.00;;;;;;6268485;22;20429;-89
2023/02/13 00:44:36;;;;;;;2.40;2.20;;;20.30;58.10;;;;;;6262736;22;20402;-90
2023/02/13 00:47:04;;;;;;;2.20;2.10;;;20.20;58.00;;;;;;6257644;22;20501;-89
2023/02/13 00:49:35;;;;;;;1.70;1.60;;;20.20;57.90;;;;;;6259302;22;20512;-89
2023/02/13 00:52:05;;;;;;;2.00;1.90;;;20.20;57.90;;;;;;6257959;22;20421;-90
2023/02/13 00:54:32;;;;;;;2.03;1.90;;;20.30;58.00;;;;;;6225054;23;20469;-90
2023/02/13 00:57:01;;;;;;;2.00;1.90;;;20.20;57.90;;;;;;6228745;23;20414;-90
2023/02/13 00:59:28;;;;;;;2.47;2.27;;;20.20;57.90;;;;;;6227347;23;20418;-89
2023/02/13 01:01:54;;;;;;;2.20;2.10;;;20.20;57.90;;;;;;6234820;23;20518;-89
2023/02/13 01:07:14;;;;;;;2.00;1.90;;;20.30;58.60;;;;;;6261758;22;20443;-93
2023/02/13 01:09:41;;;;;;;2.20;2.10;;;20.20;57.90;;;;;;6257872;22;20436;-90
2023/02/13 01:12:15;;;;;;;2.10;1.90;;;20.20;57.90;;;;;;6257456;22;20553;-90
2023/02/13 01:14:48;;;;;;;4.00;2.20;;;20.20;57.90;;;;;;6213922;22;20433;-89
2023/02/13 01:17:16;;;;;;;2.10;2.00;;;20.20;57.90;;;;;;6175132;23;20415;-89
2023/02/13 01:19:42;;;;;;;2.07;1.87;;;20.20;57.90;;;;;;6231430;22;20394;-90
2023/02/13 01:24:40;;;;;;;2.77;2.57;;;20.20;57.90;;;;;;6258890;22;20449;-89
2023/02/13 01:27:07;;;;;;;2.00;1.90;;;20.30;58.00;;;;;;6261060;22;20699;-95
2023/02/13 01:29:34;;;;;;;1.87;1.77;;;20.20;57.90;;;;;;6252306;23;20783;-89
2023/02/13 01:32:03;;;;;;;1.80;1.70;;;20.20;57.90;;;;;;6250936;23;20539;-89
2023/02/13 01:34:30;;;;;;;1.70;1.60;;;20.20;57.90;;;;;;6248995;23;20405;-89
2023/02/13 01:36:57;;;;;;;2.33;1.77;;;20.20;57.90;;;;;;6251852;23;20431;-89
2023/02/13 01:39:23;;;;;;;1.70;1.60;;;20.20;57.90;;;;;;6254095;23;20450;-90
2023/02/13 01:41:52;;;;;;;1.77;1.67;;;20.20;57.90;;;;;;6253479;22;20539;-89
2023/02/13 01:44:57;;;;;;;1.80;1.70;;;20.20;57.90;;;;;;6255836;22;20528;-90
2023/02/13 01:47:40;;;;;;;1.90;1.80;;;20.20;57.90;;;;;;6246238;23;20377;-95
2023/02/13 01:50:17;;;;;;;2.27;2.07;;;20.10;57.80;;;;;;6271913;23;20395;-92
2023/02/13 01:52:48;;;;;;;1.80;1.70;;;20.10;57.80;;;;;;6269985;22;20475;-95
2023/02/13 01:55:28;;;;;;;2.10;2.00;;;20.10;57.80;;;;;;6271808;22;20405;-96
2023/02/13 01:58:24;;;;;;;2.27;2.07;;;20.10;57.80;;;;;;6267888;22;20437;-93
2023/02/13 02:03:31;;;;;;;1.80;1.70;;;20.10;57.80;;;;;;6271586;22;20492;-90
2023/02/13 02:11:36;;;;;;;1.60;1.50;;;20.10;57.80;;;;;;6269934;22;20453;-90
2023/02/13 02:14:07;;;;;;;1.80;1.70;;;20.10;57.80;;;;;;6257217;22;20471;-90
2023/02/13 02:16:34;;;;;;;1.60;1.50;;;20.10;57.80;;;;;;6252697;22;20412;-90
2023/02/13 02:19:04;;;;;;;2.00;1.77;;;20.10;57.80;;;;;;6251063;23;20443;-90
2023/02/13 02:22:30;;;;;;;1.70;1.60;;;20.10;57.80;;;;;;6252517;23;20397;-90
2023/02/13 02:25:14;;;;;;;2.93;2.53;;;20.10;57.80;;;;;;6250005;22;20391;-90
2023/02/13 02:28:15;;;;;;;1.87;1.60;;;20.10;57.80;;;;;;6246247;23;20389;-90
2023/02/13 02:31:33;;;;;;;2.20;2.00;;;20.10;57.80;;;;;;6252394;22;20397;-90
2023/02/13 02:34:10;;;;;;;1.80;1.70;;;20.10;57.80;;;;;;6248989;22;20492;-90
2023/02/13 02:36:52;;;;;;;1.57;1.47;;;20.10;57.80;;;;;;6246877;23;20400;-91
2023/02/13 02:39:29;;;;;;;1.83;1.73;;;20.10;57.80;;;;;;6249701;23;20393;-90
2023/02/13 02:42:08;;;;;;;1.50;1.40;;;20.10;57.80;;;;;;6220094;23;20805;-90
2023/02/13 02:44:42;;;;;;;1.60;1.50;;;20.10;57.80;;;;;;6223574;22;20408;-90
2023/02/13 02:50:16;;;;;;;1.67;1.57;;;20.10;57.80;;;;;;6218073;23;20420;-91
2023/02/13 02:53:05;;;;;;;2.60;1.50;;;20.10;57.80;;;;;;6216500;22;20449;-91
2023/02/13 02:55:54;;;;;;;1.80;1.70;;;20.10;57.80;;;;;;6218088;23;20423;-91
2023/02/13 03:06:48;;;;;;;1.50;1.40;;;20.10;57.80;;;;;;6226266;22;20389;-90
2023/02/13 03:14:48;;;;;;;1.40;1.30;;;20.00;57.70;;;;;;6223262;22;20396;-90
2023/02/13 03:23:20;;;;;;;1.73;1.60;;;20.00;57.70;;;;;;6219145;23;20352;-90
2023/02/13 03:26:31;;;;;;;1.40;1.30;;;20.00;57.80;;;;;;6220630;22;20390;-90
2023/02/13 03:32:00;;;;;;;1.90;1.80;;;20.00;57.70;;;;;;6176091;23;20426;-90
2023/02/13 03:40:20;;;;;;;1.53;1.43;;;20.00;57.70;;;;;;6223825;23;20465;-91
2023/02/13 03:42:52;;;;;;;1.63;1.40;;;20.00;57.70;;;;;;6225722;22;20481;-90
2023/02/13 03:50:04;;;;;;;1.47;1.37;;;20.00;57.70;;;;;;6224438;23;20868;-90
2023/02/13 03:50:57;;;;;;;1.83;1.63;;;20.00;57.70;;;;;;6222432;23;20390;-91
2023/02/13 03:53:25;;;;;;;1.70;1.60;;;20.00;57.70;;;;;;6219562;23;20750;-91
2023/02/13 04:01:37;;;;;;;1.30;1.20;;;20.00;57.70;;;;;;6233175;22;20579;-90
2023/02/13 04:04:10;;;;;;;1.90;1.80;;;20.10;57.80;;;;;;6252417;22;20464;-90
2023/02/13 04:06:42;;;;;;;1.30;1.20;;;20.00;57.60;;;;;;6252329;23;20797;-90
2023/02/13 04:09:09;;;;;;;1.47;1.37;;;20.00;57.70;;;;;;6255417;22;20496;-90
2023/02/13 04:11:43;;;;;;;1.40;1.30;;;20.00;57.70;;;;;;6252198;22;20416;-90
2023/02/13 04:14:18;;;;;;;1.40;1.30;;;20.00;57.70;;;;;;6253625;22;20845;-90
2023/02/13 04:16:49;;;;;;;1.60;1.30;;;20.00;57.60;;;;;;6251349;22;20423;-91
2023/02/13 04:19:17;;;;;;;1.80;1.40;;;20.00;57.70;;;;;;6251528;22;20393;-91
2023/02/13 04:21:43;;;;;;;1.40;1.30;;;20.00;57.60;;;;;;6252447;22;20413;-90
2023/02/13 04:24:11;;;;;;;1.60;1.50;;;19.90;57.60;;;;;;6247509;23;20487;-91
2023/02/13 04:26:41;;;;;;;1.40;1.20;;;20.00;57.70;;;;;;6249986;23;20915;-91
2023/02/13 04:29:08;;;;;;;1.70;1.60;;;20.10;57.70;;;;;;6253464;22;20413;-91
2023/02/13 04:31:35;;;;;;;1.30;1.20;;;20.00;57.60;;;;;;6253593;22;20413;-90
2023/02/13 04:34:02;;;;;;;1.37;1.27;;;20.00;57.70;;;;;;6259637;22;20424;-90
2023/02/13 04:36:29;;;;;;;1.30;1.20;;;20.00;57.70;;;;;;6254097;22;20453;-88
2023/02/13 04:38:56;;;;;;;1.40;1.30;;;20.00;57.60;;;;;;6250466;22;20398;-90
2023/02/13 04:41:23;;;;;;;1.30;1.20;;;20.10;57.70;;;;;;6253958;22;20381;-90
2023/02/13 04:43:51;;;;;;;1.30;1.20;;;20.00;57.60;;;;;;6254436;22;20488;-90
2023/02/13 04:46:18;;;;;;;1.47;1.37;;;19.90;57.50;;;;;;6251418;23;20386;-90
2023/02/13 04:48:45;;;;;;;1.40;1.30;;;20.00;57.60;;;;;;6251805;22;20405;-91
2023/02/13 04:51:12;;;;;;;1.70;1.60;;;19.90;57.60;;;;;;6253254;22;20415;-90
2023/02/13 04:53:38;;;;;;;1.30;1.20;;;19.90;57.50;;;;;;6249715;23;20451;-90
2023/02/13 04:56:05;;;;;;;1.80;1.70;;;19.90;57.60;;;;;;6251041;22;20405;-90
2023/02/13 04:58:32;;;;;;;1.40;1.30;;;20.00;57.60;;;;;;6256632;22;20471;-90
2023/02/13 05:01:00;;;;;;;1.20;1.10;;;20.10;58.30;;;;;;6251435;22;20535;-90
2023/02/13 05:03:27;;;;;;;1.40;1.30;;;19.90;57.60;;;;;;6251920;22;20464;-90
2023/02/13 05:05:54;;;;;;;1.33;1.23;;;20.00;57.70;;;;;;6256725;22;20457;-91
2023/02/13 05:08:21;;;;;;;1.47;1.37;;;19.90;57.50;;;;;;6223434;22;20445;-91
2023/02/13 05:13:20;;;;;;;1.20;1.03;;;20.00;57.60;;;;;;6255309;22;20445;-90
2023/02/13 05:15:47;;;;;;;1.57;1.47;;;19.90;57.50;;;;;;6251869;22;20483;-90
2023/02/13 05:18:16;;;;;;;1.20;1.10;;;19.90;57.50;;;;;;6253740;22;20955;-90
2023/02/13 05:20:43;;;;;;;1.30;1.20;;;19.90;57.50;;;;;;6254914;22;20459;-90
2023/02/13 05:23:21;;;;;;;1.10;1.00;;;19.90;57.50;;;;;;6254317;22;20448;-90
2023/02/13 05:25:49;;;;;;;1.20;1.10;;;19.90;57.50;;;;;;6255921;22;20790;-90
2023/02/13 05:31:00;;;;;;;1.37;1.27;;;20.10;57.70;;;;;;6255473;23;20421;-90
2023/02/13 05:33:28;;;;;;;1.30;1.20;;;19.90;57.50;;;;;;6254392;22;20500;-90
2023/02/13 05:35:55;;;;;;;1.50;1.40;;;19.90;57.60;;;;;;6256314;22;20449;-90
2023/02/13 05:38:21;;;;;;;1.27;1.17;;;19.90;57.60;;;;;;6254062;23;20394;-90
2023/02/13 05:40:48;;;;;;;1.40;1.20;;;19.90;57.50;;;;;;6255573;22;20527;-90
2023/02/13 05:43:15;;;;;;;1.20;1.10;;;19.90;58.10;;;;;;6251492;22;20409;-95
2023/02/13 05:45:42;;;;;;;1.40;1.30;;;19.90;57.50;;;;;;6252976;23;20488;-90
2023/02/13 05:48:09;;;;;;;1.33;1.23;;;19.90;57.50;;;;;;6254120;23;20405;-90
2023/02/13 05:50:38;;;;;;;1.20;1.10;;;19.90;57.50;;;;;;6254404;23;20464;-90
2023/02/13 05:53:04;;;;;;;1.43;1.33;;;19.90;57.50;;;;;;6251887;22;20547;-92
2023/02/13 05:55:31;;;;;;;1.10;1.00;;;19.90;57.50;;;;;;6253134;22;20896;-91
2023/02/13 05:57:58;;;;;;;1.20;1.10;;;19.90;57.50;;;;;;6253999;23;20437;-90
2023/02/13 06:00:25;;;;;;;1.20;1.10;;;19.90;57.50;;;;;;6256874;22;20927;-93
2023/02/13 06:02:52;;;;;;;1.33;1.23;;;19.90;57.50;;;;;;6251123;23;20840;-90
2023/02/13 06:05:19;;;;;;;1.47;1.10;;;19.90;57.50;;;;;;6262350;22;20440;-90
2023/02/13 06:13:10;;;;;;;1.20;1.10;;;19.90;57.50;;;;;;6250734;23;20497;-89
2023/02/13 06:15:39;;;;;;;1.27;1.17;;;19.90;57.50;;;;;;6247478;23;20438;-89
2023/02/13 06:18:06;;;;;;;1.40;1.30;;;19.80;57.40;;;;;;6250586;22;20405;-89
2023/02/13 06:20:33;;;;;;;1.20;1.10;;;19.90;57.50;;;;;;6253577;22;20381;-90
2023/02/13 06:23:00;;;;;;;1.30;1.20;;;19.90;57.50;;;;;;6249026;22;20407;-90
2023/02/13 06:25:27;;;;;;;1.30;1.20;;;20.00;57.60;;;;;;6247232;23;20408;-90
2023/02/13 06:27:55;;;;;;;1.17;1.07;;;20.10;57.60;;;;;;6253131;22;20473;-90
2023/02/13 06:30:23;;;;;;;1.30;1.20;;;20.00;57.60;;;;;;6252138;22;20406;-89
2023/02/13 06:32:50;;;;;;;1.30;1.20;;;20.00;57.60;;;;;;6251694;23;20438;-90
2023/02/13 06:35:17;;;;;;;1.20;1.10;;;19.80;57.40;;;;;;6249358;23;20412;-90
2023/02/13 06:37:44;;;;;;;1.20;1.00;;;19.90;57.50;;;;;;6253519;22;20520;-95
2023/02/13 06:40:12;;;;;;;1.10;1.00;;;19.80;57.40;;;;;;6258408;23;20408;-90
2023/02/13 06:42:39;;;;;;;1.40;1.30;;;19.90;57.50;;;;;;6256980;22;20419;-91
2023/02/13 06:45:10;;;;;;;1.13;1.03;;;19.80;57.40;;;;;;6252731;22;20487;-91
2023/02/13 06:47:41;;;;;;;1.30;1.20;;;19.90;57.50;;;;;;6249765;23;20415;-90
2023/02/13 06:50:12;;;;;;;1.17;1.07;;;19.90;57.50;;;;;;6258224;23;20476;-90
2023/02/13 06:52:38;;;;;;;1.20;1.10;;;19.80;57.40;;;;;;6250818;22;20441;-90
2023/02/13 06:55:06;;;;;;;1.20;1.00;;;19.80;57.40;;;;;;6249003;23;20491;-90
2023/02/13 06:57:33;;;;;;;1.20;1.10;;;19.80;57.50;;;;;;6249049;23;20476;-88
2023/02/13 07:00:03;;;;;;;1.10;1.00;;;19.80;57.40;;;;;;6247386;23;20488;-92
2023/02/13 07:02:30;;;;;;;1.10;0.97;;;19.80;57.40;;;;;;6246233;23;20507;-90
2023/02/13 07:04:58;;;;;;;1.30;1.20;;;19.80;57.50;;;;;;6246001;23;20432;-90
2023/02/13 07:07:25;;;;;;;1.27;1.17;;;19.90;57.50;;;;;;6244165;23;20958;-90
2023/02/13 07:09:52;;;;;;;1.30;1.20;;;20.00;57.60;;;;;;6245165;23;20963;-90
2023/02/13 07:12:19;;;;;;;1.20;1.10;;;19.90;57.50;;;;;;6246033;23;20480;-90
2023/02/13 07:14:46;;;;;;;1.13;1.03;;;20.00;57.50;;;;;;6245891;23;20401;-89
2023/02/13 07:17:12;;;;;;;1.10;1.00;;;19.90;57.40;;;;;;6245599;23;20487;-89
2023/02/13 07:19:39;;;;;;;1.00;0.90;;;19.80;57.30;;;;;;6244966;23;20401;-90
2023/02/13 07:22:07;;;;;;;1.10;0.97;;;19.80;57.30;;;;;;6244393;23;20400;-92
2023/02/13 07:24:37;;;;;;;1.20;1.10;;;19.80;57.30;;;;;;6218577;23;20412;-91
2023/02/13 07:27:04;;;;;;;1.20;1.10;;;19.90;57.50;;;;;;6244660;23;20433;-90
2023/02/13 07:29:31;;;;;;;1.67;0.90;;;19.90;57.50;;;;;;6244990;23;20413;-90
2023/02/13 07:31:58;;;;;;;2.73;1.13;;;19.90;57.40;;;;;;6245656;23;20405;-91
2023/02/13 07:34:24;;;;;;;2.63;1.30;;;19.90;57.40;;;;;;6245735;23;20528;-90
2023/02/13 07:36:52;;;;;;;1.03;0.93;;;19.90;57.50;;;;;;6246458;23;20447;-92
2023/02/13 07:39:20;;;;;;;1.30;1.00;;;19.90;57.70;;;;;;6244605;23;20405;-92
2023/02/13 07:41:48;;;;;;;1.10;0.90;;;20.10;57.70;;;;;;6245204;23;20425;-92
2023/02/13 07:44:15;;;;;;;1.50;1.03;;;19.90;57.80;;;;;;6245767;23;20484;-92
2023/02/13 07:46:41;;;;;;;1.20;1.10;;;19.90;57.90;;;;;;6245560;23;20492;-92
2023/02/13 07:49:08;;;;;;;2.60;1.20;;;20.00;58.00;;;;;;6245488;23;20495;-92
2023/02/13 07:51:37;;;;;;;1.30;1.20;;;19.90;58.00;;;;;;6242130;23;20440;-96
2023/02/13 07:54:04;;;;;;;1.93;1.20;;;20.00;58.20;;;;;;6246936;23;20519;-86
2023/02/13 07:56:32;;;;;;;1.77;1.67;;;19.90;58.10;;;;;;6245708;23;20460;-92
2023/02/13 07:58:59;;;;;;;1.67;1.20;;;20.00;58.30;;;;;;6246790;23;20775;-90
2023/02/13 08:01:26;;;;;;;1.37;1.27;;;20.00;58.40;;;;;;6247534;23;20405;-90
2023/02/13 08:03:52;;;;;;;1.00;0.90;;;20.10;58.40;;;;;;6247371;23;20495;-92
2023/02/13 08:06:20;;;;;;;1.33;1.20;;;20.00;58.80;;;;;;6247446;23;20507;-87
2023/02/13 08:11:52;;;;;;;3.20;1.13;;;20.00;58.30;;;;;;6247675;23;20496;-86
2023/02/13 08:11:53;;;;;;;2.27;1.07;;;20.00;58.20;;;;;;6245329;23;20396;-84
2023/02/13 08:14:21;;;;;;;3.00;1.10;;;20.00;58.30;;;;;;6251841;23;20461;-88
2023/02/13 08:16:47;;;;;;;1.20;0.90;;;20.00;58.10;;;;;;6247938;23;20488;-87
2023/02/13 08:19:14;;;;;;;5.77;1.80;;;20.10;58.40;;;;;;6246971;23;20931;-86
2023/02/13 08:21:41;;;;;;;1.23;0.90;;;20.10;58.20;;;;;;6246744;23;20401;-94
2023/02/13 08:24:08;;;;;;;1.63;1.03;;;20.10;58.00;;;;;;6246263;23;20400;-89
2023/02/13 08:26:36;;;;;;;1.20;1.00;;;20.10;57.90;;;;;;6235446;23;20433;-95
2023/02/13 08:29:04;;;;;;;5.03;1.90;;;20.10;57.90;;;;;;6246554;23;20493;-85
2023/02/13 08:31:32;;;;;;;3.53;2.30;;;20.10;58.00;;;;;;6245633;23;20417;-93
2023/02/13 08:34:09;;;;;;;2.27;1.37;;;20.20;57.90;;;;;;6246452;23;20472;-87
